Terminal Aerodrome Forecast
Issued by NWS

Home | Current Version | Previous Version | Text Only | Print | Product List | Glossary On
Versions: 1 2 3 4 5 6 7 8 9 10 11 12
000
FTPA31 PHFO 231120
TAFHMK
TAF
PHMK 231120Z 2312/2412 04010KT P6SM SKC
     FM231900 03013G20KT P6SM FEW035
     FM240500 03010KT P6SM SKC=

USA.gov is the U.S. government's official web portal to all federal, state and local government web resources and services.